sensor_id;sensor_type;location;lat;lon;timestamp;temperature;humidity
17452;DHT22;8843;48.838;9.324;2023-05-07T00:02:04;17.90;78.70
17452;DHT22;8843;48.838;9.324;2023-05-07T00:04:31;17.90;78.80
17452;DHT22;8843;48.838;9.324;2023-05-07T00:07:03;17.90;78.80
17452;DHT22;8843;48.838;9.324;2023-05-07T00:09:31;17.90;78.80
17452;DHT22;8843;48.838;9.324;2023-05-07T00:11:57;17.90;78.80
17452;DHT22;8843;48.838;9.324;2023-05-07T00:14:25;17.90;78.90
17452;DHT22;8843;48.838;9.324;2023-05-07T00:16:52;17.90;79.00
17452;DHT22;8843;48.838;9.324;2023-05-07T00:19:18;17.90;79.00
17452;DHT22;8843;48.838;9.324;2023-05-07T00:21:45;17.90;79.00
17452;DHT22;8843;48.838;9.324;2023-05-07T00:24:14;17.90;79.00
17452;DHT22;8843;48.838;9.324;2023-05-07T00:26:40;17.90;79.00
17452;DHT22;8843;48.838;9.324;2023-05-07T00:29:07;17.90;79.10
17452;DHT22;8843;48.838;9.324;2023-05-07T00:31:34;17.90;79.10
17452;DHT22;8843;48.838;9.324;2023-05-07T00:34:01;17.90;79.20
17452;DHT22;8843;48.838;9.324;2023-05-07T00:36:28;17.90;79.20
17452;DHT22;8843;48.838;9.324;2023-05-07T00:38:57;17.90;79.20
17452;DHT22;8843;48.838;9.324;2023-05-07T00:41:27;17.80;78.60
17452;DHT22;8843;48.838;9.324;2023-05-07T00:43:54;17.90;79.00
17452;DHT22;8843;48.838;9.324;2023-05-07T00:46:21;17.90;79.30
17452;DHT22;8843;48.838;9.324;2023-05-07T00:48:48;17.80;79.20
17452;DHT22;8843;48.838;9.324;2023-05-07T00:51:17;17.80;79.20
17452;DHT22;8843;48.838;9.324;2023-05-07T00:53:44;17.80;79.20
17452;DHT22;8843;48.838;9.324;2023-05-07T00:56:11;17.80;79.20
17452;DHT22;8843;48.838;9.324;2023-05-07T00:58:40;17.80;79.20
17452;DHT22;8843;48.838;9.324;2023-05-07T01:01:07;17.80;79.20
17452;DHT22;8843;48.838;9.324;2023-05-07T01:03:34;17.80;79.30
17452;DHT22;8843;48.838;9.324;2023-05-07T01:06:01;17.80;79.30
17452;DHT22;8843;48.838;9.324;2023-05-07T01:08:29;17.80;79.30
17452;DHT22;8843;48.838;9.324;2023-05-07T01:10:57;17.80;79.30
17452;DHT22;8843;48.838;9.324;2023-05-07T01:13:25;17.80;79.20
17452;DHT22;8843;48.838;9.324;2023-05-07T01:15:53;17.80;79.30
17452;DHT22;8843;48.838;9.324;2023-05-07T01:18:20;17.80;79.40
17452;DHT22;8843;48.838;9.324;2023-05-07T01:20:47;17.80;79.40
17452;DHT22;8843;48.838;9.324;2023-05-07T01:23:16;17.80;79.30
17452;DHT22;8843;48.838;9.324;2023-05-07T01:25:51;17.80;79.40
17452;DHT22;8843;48.838;9.324;2023-05-07T01:28:18;17.80;79.50
17452;DHT22;8843;48.838;9.324;2023-05-07T01:30:48;17.80;79.40
17452;DHT22;8843;48.838;9.324;2023-05-07T01:33:18;17.80;79.40
17452;DHT22;8843;48.838;9.324;2023-05-07T01:35:49;17.80;79.40
17452;DHT22;8843;48.838;9.324;2023-05-07T01:38:18;17.70;79.40
17452;DHT22;8843;48.838;9.324;2023-05-07T01:40:45;17.80;79.40
17452;DHT22;8843;48.838;9.324;2023-05-07T01:43:12;17.70;79.40
17452;DHT22;8843;48.838;9.324;2023-05-07T01:45:40;17.70;79.50
17452;DHT22;8843;48.838;9.324;2023-05-07T01:48:09;17.70;79.50
17452;DHT22;8843;48.838;9.324;2023-05-07T01:50:37;17.70;79.50
17452;DHT22;8843;48.838;9.324;2023-05-07T01:53:04;17.70;79.40
17452;DHT22;8843;48.838;9.324;2023-05-07T01:55:32;17.70;79.50
17452;DHT22;8843;48.838;9.324;2023-05-07T01:57:59;17.70;79.50
17452;DHT22;8843;48.838;9.324;2023-05-07T02:00:26;17.70;79.60
17452;DHT22;8843;48.838;9.324;2023-05-07T02:02:53;17.70;79.60
17452;DHT22;8843;48.838;9.324;2023-05-07T02:05:20;17.70;80.30
17452;DHT22;8843;48.838;9.324;2023-05-07T02:07:47;17.70;79.60
17452;DHT22;8843;48.838;9.324;2023-05-07T02:10:13;17.70;79.60
17452;DHT22;8843;48.838;9.324;2023-05-07T02:12:42;17.70;79.60
17452;DHT22;8843;48.838;9.324;2023-05-07T02:15:10;17.70;79.60
17452;DHT22;8843;48.838;9.324;2023-05-07T02:17:39;17.70;79.60
17452;DHT22;8843;48.838;9.324;2023-05-07T02:20:07;17.70;79.60
17452;DHT22;8843;48.838;9.324;2023-05-07T02:22:38;17.70;79.60
17452;DHT22;8843;48.838;9.324;2023-05-07T02:25:05;17.60;79.50
17452;DHT22;8843;48.838;9.324;2023-05-07T02:27:32;17.60;79.50
17452;DHT22;8843;48.838;9.324;2023-05-07T02:30:01;17.60;79.50
17452;DHT22;8843;48.838;9.324;2023-05-07T02:32:28;17.60;79.50
17452;DHT22;8843;48.838;9.324;2023-05-07T02:34:55;17.60;79.60
17452;DHT22;8843;48.838;9.324;2023-05-07T02:37:22;17.60;80.30
17452;DHT22;8843;48.838;9.324;2023-05-07T02:39:49;17.60;79.60
17452;DHT22;8843;48.838;9.324;2023-05-07T02:42:16;17.60;79.60
17452;DHT22;8843;48.838;9.324;2023-05-07T02:44:43;17.60;79.60
17452;DHT22;8843;48.838;9.324;2023-05-07T02:47:13;17.60;79.60
17452;DHT22;8843;48.838;9.324;2023-05-07T02:49:40;17.60;79.60
17452;DHT22;8843;48.838;9.324;2023-05-07T02:52:08;17.60;79.70
17452;DHT22;8843;48.838;9.324;2023-05-07T02:54:35;17.60;79.70
17452;DHT22;8843;48.838;9.324;2023-05-07T02:57:02;17.60;79.70
17452;DHT22;8843;48.838;9.324;2023-05-07T02:59:28;17.60;79.70
17452;DHT22;8843;48.838;9.324;2023-05-07T03:01:55;17.60;79.70
17452;DHT22;8843;48.838;9.324;2023-05-07T03:04:23;17.50;79.50
17452;DHT22;8843;48.838;9.324;2023-05-07T03:06:50;17.60;79.70
17452;DHT22;8843;48.838;9.324;2023-05-07T03:09:17;17.60;80.50
17452;DHT22;8843;48.838;9.324;2023-05-07T03:11:44;17.50;79.60
17452;DHT22;8843;48.838;9.324;2023-05-07T03:14:11;17.50;79.60
17452;DHT22;8843;48.838;9.324;2023-05-07T03:16:39;17.50;79.70
17452;DHT22;8843;48.838;9.324;2023-05-07T03:19:06;17.50;79.70
17452;DHT22;8843;48.838;9.324;2023-05-07T03:21:34;17.50;79.70
17452;DHT22;8843;48.838;9.324;2023-05-07T03:24:01;17.50;79.70
17452;DHT22;8843;48.838;9.324;2023-05-07T03:26:27;17.50;79.70
17452;DHT22;8843;48.838;9.324;2023-05-07T03:28:54;17.50;79.70
17452;DHT22;8843;48.838;9.324;2023-05-07T03:31:21;17.50;79.70
17452;DHT22;8843;48.838;9.324;2023-05-07T03:33:52;17.50;79.70
17452;DHT22;8843;48.838;9.324;2023-05-07T03:36:20;17.50;79.80
17452;DHT22;8843;48.838;9.324;2023-05-07T03:38:48;17.50;79.80
17452;DHT22;8843;48.838;9.324;2023-05-07T03:41:16;17.50;79.70
17452;DHT22;8843;48.838;9.324;2023-05-07T03:43:42;17.50;80.50
17452;DHT22;8843;48.838;9.324;2023-05-07T03:46:09;17.50;79.70
17452;DHT22;8843;48.838;9.324;2023-05-07T03:48:36;17.50;79.70
17452;DHT22;8843;48.838;9.324;2023-05-07T03:51:03;17.50;79.70
17452;DHT22;8843;48.838;9.324;2023-05-07T03:53:30;17.50;79.70
17452;DHT22;8843;48.838;9.324;2023-05-07T03:55:58;17.40;79.60
17452;DHT22;8843;48.838;9.324;2023-05-07T03:58:25;17.40;79.60
17452;DHT22;8843;48.838;9.324;2023-05-07T04:00:52;17.40;79.60
17452;DHT22;8843;48.838;9.324;2023-05-07T04:03:19;17.40;79.60
17452;DHT22;8843;48.838;9.324;2023-05-07T04:05:46;17.40;79.60
17452;DHT22;8843;48.838;9.324;2023-05-07T04:08:13;17.40;80.30
17452;DHT22;8843;48.838;9.324;2023-05-07T04:10:39;17.40;79.60
17452;DHT22;8843;48.838;9.324;2023-05-07T04:13:08;17.40;79.60
17452;DHT22;8843;48.838;9.324;2023-05-07T04:15:35;17.40;79.60
17452;DHT22;8843;48.838;9.324;2023-05-07T04:18:02;17.40;79.60
17452;DHT22;8843;48.838;9.324;2023-05-07T04:20:29;17.40;79.60
17452;DHT22;8843;48.838;9.324;2023-05-07T04:22:56;17.40;79.60
17452;DHT22;8843;48.838;9.324;2023-05-07T04:25:23;17.40;79.60
17452;DHT22;8843;48.838;9.324;2023-05-07T04:27:51;17.40;79.50
17452;DHT22;8843;48.838;9.324;2023-05-07T04:30:20;17.40;79.60
17452;DHT22;8843;48.838;9.324;2023-05-07T04:32:47;17.40;79.70
17452;DHT22;8843;48.838;9.324;2023-05-07T04:35:14;17.40;79.60
17452;DHT22;8843;48.838;9.324;2023-05-07T04:37:41;17.40;79.60
17452;DHT22;8843;48.838;9.324;2023-05-07T04:40:08;17.40;80.30
17452;DHT22;8843;48.838;9.324;2023-05-07T04:42:36;17.40;79.60
17452;DHT22;8843;48.838;9.324;2023-05-07T04:45:03;17.40;79.60
17452;DHT22;8843;48.838;9.324;2023-05-07T04:47:31;17.40;79.60
17452;DHT22;8843;48.838;9.324;2023-05-07T04:49:58;17.40;79.60
17452;DHT22;8843;48.838;9.324;2023-05-07T04:52:25;17.40;79.60
17452;DHT22;8843;48.838;9.324;2023-05-07T04:54:52;17.40;79.60
17452;DHT22;8843;48.838;9.324;2023-05-07T04:57:19;17.40;79.50
17452;DHT22;8843;48.838;9.324;2023-05-07T04:59:46;17.40;79.40
17452;DHT22;8843;48.838;9.324;2023-05-07T05:02:12;17.30;79.40
17452;DHT22;8843;48.838;9.324;2023-05-07T05:04:41;17.30;80.20
17452;DHT22;8843;48.838;9.324;2023-05-07T05:07:08;17.30;79.50
17452;DHT22;8843;48.838;9.324;2023-05-07T05:09:35;17.30;79.60
17452;DHT22;8843;48.838;9.324;2023-05-07T05:12:02;17.30;79.60
17452;DHT22;8843;48.838;9.324;2023-05-07T05:14:29;17.30;79.60
17452;DHT22;8843;48.838;9.324;2023-05-07T05:16:56;17.30;79.60
17452;DHT22;8843;48.838;9.324;2023-05-07T05:19:22;17.30;79.40
17452;DHT22;8843;48.838;9.324;2023-05-07T05:21:51;17.30;79.70
17452;DHT22;8843;48.838;9.324;2023-05-07T05:24:18;17.30;79.70
17452;DHT22;8843;48.838;9.324;2023-05-07T05:26:45;17.30;79.80
17452;DHT22;8843;48.838;9.324;2023-05-07T05:29:12;17.30;79.70
17452;DHT22;8843;48.838;9.324;2023-05-07T05:31:39;17.30;79.80
17452;DHT22;8843;48.838;9.324;2023-05-07T05:34:07;17.30;79.80
17452;DHT22;8843;48.838;9.324;2023-05-07T05:36:33;17.30;79.80
17452;DHT22;8843;48.838;9.324;2023-05-07T05:39:02;17.30;79.80
17452;DHT22;8843;48.838;9.324;2023-05-07T05:41:29;17.20;79.70
17452;DHT22;8843;48.838;9.324;2023-05-07T05:43:56;17.30;79.80
17452;DHT22;8843;48.838;9.324;2023-05-07T05:46:23;17.30;79.80
17452;DHT22;8843;48.838;9.324;2023-05-07T05:48:49;17.30;79.90
17452;DHT22;8843;48.838;9.324;2023-05-07T05:51:16;17.20;80.60
17452;DHT22;8843;48.838;9.324;2023-05-07T05:53:43;17.20;79.30
17452;DHT22;8843;48.838;9.324;2023-05-07T05:56:11;17.20;79.90
17452;DHT22;8843;48.838;9.324;2023-05-07T05:58:38;17.20;79.90
17452;DHT22;8843;48.838;9.324;2023-05-07T06:01:05;17.20;79.90
17452;DHT22;8843;48.838;9.324;2023-05-07T06:03:32;17.30;79.90
17452;DHT22;8843;48.838;9.324;2023-05-07T06:05:59;17.20;79.80
17452;DHT22;8843;48.838;9.324;2023-05-07T06:08:29;17.20;79.70
17452;DHT22;8843;48.838;9.324;2023-05-07T06:10:56;17.20;80.40
17452;DHT22;8843;48.838;9.324;2023-05-07T06:13:24;17.20;79.70
17452;DHT22;8843;48.838;9.324;2023-05-07T06:15:51;17.20;80.50
17452;DHT22;8843;48.838;9.324;2023-05-07T06:18:18;17.20;79.00
17452;DHT22;8843;48.838;9.324;2023-05-07T06:20:45;17.20;80.20
17452;DHT22;8843;48.838;9.324;2023-05-07T06:23:12;17.20;80.10
17452;DHT22;8843;48.838;9.324;2023-05-07T06:25:38;17.20;79.90
17452;DHT22;8843;48.838;9.324;2023-05-07T06:28:06;17.20;80.00
17452;DHT22;8843;48.838;9.324;2023-05-07T06:30:35;17.20;80.00
17452;DHT22;8843;48.838;9.324;2023-05-07T06:33:02;17.20;80.00
17452;DHT22;8843;48.838;9.324;2023-05-07T06:35:29;17.20;80.00
17452;DHT22;8843;48.838;9.324;2023-05-07T06:37:55;17.20;80.00
17452;DHT22;8843;48.838;9.324;2023-05-07T06:40:22;17.20;79.80
17452;DHT22;8843;48.838;9.324;2023-05-07T06:42:49;17.20;80.10
17452;DHT22;8843;48.838;9.324;2023-05-07T06:45:16;17.20;80.10
17452;DHT22;8843;48.838;9.324;2023-05-07T06:47:44;17.20;80.20
17452;DHT22;8843;48.838;9.324;2023-05-07T06:50:11;17.20;80.20
17452;DHT22;8843;48.838;9.324;2023-05-07T06:52:38;17.20;80.90
17452;DHT22;8843;48.838;9.324;2023-05-07T06:55:06;17.20;80.90
17452;DHT22;8843;48.838;9.324;2023-05-07T06:57:33;17.20;80.20
17452;DHT22;8843;48.838;9.324;2023-05-07T07:00:00;17.20;80.20
17452;DHT22;8843;48.838;9.324;2023-05-07T07:02:27;17.20;79.90
17452;DHT22;8843;48.838;9.324;2023-05-07T07:04:55;17.20;79.80
17452;DHT22;8843;48.838;9.324;2023-05-07T07:07:22;17.20;79.90
17452;DHT22;8843;48.838;9.324;2023-05-07T07:09:49;17.20;80.00
17452;DHT22;8843;48.838;9.324;2023-05-07T07:12:17;17.20;80.10
17452;DHT22;8843;48.838;9.324;2023-05-07T07:14:43;17.10;80.90
17452;DHT22;8843;48.838;9.324;2023-05-07T07:17:11;17.30;82.30
17452;DHT22;8843;48.838;9.324;2023-05-07T07:19:38;17.20;81.80
17452;DHT22;8843;48.838;9.324;2023-05-07T07:22:06;17.20;82.60
17452;DHT22;8843;48.838;9.324;2023-05-07T07:24:33;17.20;81.70
17452;DHT22;8843;48.838;9.324;2023-05-07T07:27:00;17.30;81.80
17452;DHT22;8843;48.838;9.324;2023-05-07T07:29:27;17.40;82.40
17452;DHT22;8843;48.838;9.324;2023-05-07T07:31:54;17.50;82.60
17452;DHT22;8843;48.838;9.324;2023-05-07T07:34:20;17.50;82.10
17452;DHT22;8843;48.838;9.324;2023-05-07T07:36:47;17.60;82.70
17452;DHT22;8843;48.838;9.324;2023-05-07T07:39:15;17.70;82.40
17452;DHT22;8843;48.838;9.324;2023-05-07T07:41:42;17.80;80.90
17452;DHT22;8843;48.838;9.324;2023-05-07T07:44:09;17.90;82.00
17452;DHT22;8843;48.838;9.324;2023-05-07T07:46:38;17.90;81.40
17452;DHT22;8843;48.838;9.324;2023-05-07T07:49:05;18.10;81.70
17452;DHT22;8843;48.838;9.324;2023-05-07T07:51:32;18.10;83.00
17452;DHT22;8843;48.838;9.324;2023-05-07T07:53:58;18.30;81.70
17452;DHT22;8843;48.838;9.324;2023-05-07T07:56:27;18.30;80.60
17452;DHT22;8843;48.838;9.324;2023-05-07T07:58:54;18.40;82.30
17452;DHT22;8843;48.838;9.324;2023-05-07T08:01:21;18.50;81.90
17452;DHT22;8843;48.838;9.324;2023-05-07T08:03:48;18.60;81.50
17452;DHT22;8843;48.838;9.324;2023-05-07T08:06:15;18.50;81.60
17452;DHT22;8843;48.838;9.324;2023-05-07T08:08:41;18.60;82.00
17452;DHT22;8843;48.838;9.324;2023-05-07T08:11:08;18.60;80.70
17452;DHT22;8843;48.838;9.324;2023-05-07T08:13:38;18.60;81.90
17452;DHT22;8843;48.838;9.324;2023-05-07T08:16:05;18.70;82.50
17452;DHT22;8843;48.838;9.324;2023-05-07T08:18:32;18.70;82.40
17452;DHT22;8843;48.838;9.324;2023-05-07T08:20:59;18.80;82.70
17452;DHT22;8843;48.838;9.324;2023-05-07T08:23:26;18.70;81.60
17452;DHT22;8843;48.838;9.324;2023-05-07T08:25:53;18.90;82.90
17452;DHT22;8843;48.838;9.324;2023-05-07T08:28:20;18.90;80.60
17452;DHT22;8843;48.838;9.324;2023-05-07T08:30:48;18.90;81.40
17452;DHT22;8843;48.838;9.324;2023-05-07T08:33:15;19.00;82.30
17452;DHT22;8843;48.838;9.324;2023-05-07T08:35:42;19.00;81.70
17452;DHT22;8843;48.838;9.324;2023-05-07T08:38:09;18.90;81.80
17452;DHT22;8843;48.838;9.324;2023-05-07T08:40:37;19.00;83.10
17452;DHT22;8843;48.838;9.324;2023-05-07T08:43:06;19.10;79.90
17452;DHT22;8843;48.838;9.324;2023-05-07T08:45:34;18.90;81.90
17452;DHT22;8843;48.838;9.324;2023-05-07T08:48:08;18.90;78.70
17452;DHT22;8843;48.838;9.324;2023-05-07T08:50:36;18.70;81.30
17452;DHT22;8843;48.838;9.324;2023-05-07T08:53:03;18.60;79.50
17452;DHT22;8843;48.838;9.324;2023-05-07T08:55:30;18.90;79.30
17452;DHT22;8843;48.838;9.324;2023-05-07T08:57:57;19.20;78.70
17452;DHT22;8843;48.838;9.324;2023-05-07T09:00:24;19.30;79.10
17452;DHT22;8843;48.838;9.324;2023-05-07T09:02:52;19.50;77.60
17452;DHT22;8843;48.838;9.324;2023-05-07T09:05:20;19.70;78.70
17452;DHT22;8843;48.838;9.324;2023-05-07T09:07:47;19.80;77.80
17452;DHT22;8843;48.838;9.324;2023-05-07T09:10:14;19.80;79.80
17452;DHT22;8843;48.838;9.324;2023-05-07T09:12:41;19.80;83.20
17452;DHT22;8843;48.838;9.324;2023-05-07T09:15:09;19.80;83.20
17452;DHT22;8843;48.838;9.324;2023-05-07T09:17:36;19.70;83.10
17452;DHT22;8843;48.838;9.324;2023-05-07T09:20:03;19.90;83.80
17452;DHT22;8843;48.838;9.324;2023-05-07T09:22:33;20.10;82.60
17452;DHT22;8843;48.838;9.324;2023-05-07T09:24:59;20.10;81.70
17452;DHT22;8843;48.838;9.324;2023-05-07T09:27:26;20.30;82.50
17452;DHT22;8843;48.838;9.324;2023-05-07T09:29:53;20.50;82.00
17452;DHT22;8843;48.838;9.324;2023-05-07T09:32:20;20.50;81.80
17452;DHT22;8843;48.838;9.324;2023-05-07T09:34:47;20.70;81.20
17452;DHT22;8843;48.838;9.324;2023-05-07T09:37:14;20.80;81.80
17452;DHT22;8843;48.838;9.324;2023-05-07T09:39:44;21.00;81.50
17452;DHT22;8843;48.838;9.324;2023-05-07T09:42:12;20.90;80.50
17452;DHT22;8843;48.838;9.324;2023-05-07T09:44:40;21.30;80.50
17452;DHT22;8843;48.838;9.324;2023-05-07T09:47:07;21.50;80.80
17452;DHT22;8843;48.838;9.324;2023-05-07T09:49:36;21.70;80.00
17452;DHT22;8843;48.838;9.324;2023-05-07T09:52:05;21.70;78.70
17452;DHT22;8843;48.838;9.324;2023-05-07T09:54:37;21.60;78.50
17452;DHT22;8843;48.838;9.324;2023-05-07T09:57:06;21.70;79.30
17452;DHT22;8843;48.838;9.324;2023-05-07T09:59:34;21.80;76.60
17452;DHT22;8843;48.838;9.324;2023-05-07T10:02:04;21.80;77.80
17452;DHT22;8843;48.838;9.324;2023-05-07T10:04:31;22.00;78.60
17452;DHT22;8843;48.838;9.324;2023-05-07T10:06:58;22.30;79.20
17452;DHT22;8843;48.838;9.324;2023-05-07T10:09:26;22.40;77.80
17452;DHT22;8843;48.838;9.324;2023-05-07T10:11:54;22.50;76.90
17452;DHT22;8843;48.838;9.324;2023-05-07T10:14:23;22.70;75.90
17452;DHT22;8843;48.838;9.324;2023-05-07T10:16:51;22.90;76.10
17452;DHT22;8843;48.838;9.324;2023-05-07T10:19:20;22.90;75.40
17452;DHT22;8843;48.838;9.324;2023-05-07T10:21:53;23.00;76.10
17452;DHT22;8843;48.838;9.324;2023-05-07T10:24:25;23.10;76.30
17452;DHT22;8843;48.838;9.324;2023-05-07T10:26:53;23.30;74.80
17452;DHT22;8843;48.838;9.324;2023-05-07T10:29:30;23.50;74.10
17452;DHT22;8843;48.838;9.324;2023-05-07T10:32:14;23.10;72.60
17452;DHT22;8843;48.838;9.324;2023-05-07T10:34:48;23.50;73.00
17452;DHT22;8843;48.838;9.324;2023-05-07T10:37:17;23.80;72.60
17452;DHT22;8843;48.838;9.324;2023-05-07T10:39:45;23.90;72.30
17452;DHT22;8843;48.838;9.324;2023-05-07T10:42:13;23.90;71.20
17452;DHT22;8843;48.838;9.324;2023-05-07T10:44:41;24.00;72.10
17452;DHT22;8843;48.838;9.324;2023-05-07T10:47:09;24.20;71.90
17452;DHT22;8843;48.838;9.324;2023-05-07T10:52:43;24.20;71.00
17452;DHT22;8843;48.838;9.324;2023-05-07T10:55:20;24.50;70.20
17452;DHT22;8843;48.838;9.324;2023-05-07T10:57:47;24.60;71.20
17452;DHT22;8843;48.838;9.324;2023-05-07T11:00:43;24.60;69.60
17452;DHT22;8843;48.838;9.324;2023-05-07T11:03:12;24.60;68.90
17452;DHT22;8843;48.838;9.324;2023-05-07T11:05:41;24.00;66.70
17452;DHT22;8843;48.838;9.324;2023-05-07T11:08:09;23.80;67.10
17452;DHT22;8843;48.838;9.324;2023-05-07T11:10:49;23.40;68.50
17452;DHT22;8843;48.838;9.324;2023-05-07T11:13:17;23.00;68.00
17452;DHT22;8843;48.838;9.324;2023-05-07T11:15:46;22.40;71.20
17452;DHT22;8843;48.838;9.324;2023-05-07T11:18:14;22.80;70.00
17452;DHT22;8843;48.838;9.324;2023-05-07T11:20:50;22.90;70.60
17452;DHT22;8843;48.838;9.324;2023-05-07T11:23:54;22.00;70.40
17452;DHT22;8843;48.838;9.324;2023-05-07T11:26:22;21.80;71.10
17452;DHT22;8843;48.838;9.324;2023-05-07T11:28:49;21.90;71.60
17452;DHT22;8843;48.838;9.324;2023-05-07T11:31:22;21.70;71.70
17452;DHT22;8843;48.838;9.324;2023-05-07T11:33:51;22.20;72.20
17452;DHT22;8843;48.838;9.324;2023-05-07T11:36:18;22.30;70.70
17452;DHT22;8843;48.838;9.324;2023-05-07T11:38:46;22.70;68.70
17452;DHT22;8843;48.838;9.324;2023-05-07T11:41:13;22.80;67.80
17452;DHT22;8843;48.838;9.324;2023-05-07T11:43:54;22.90;67.80
17452;DHT22;8843;48.838;9.324;2023-05-07T11:46:23;22.90;66.10
17452;DHT22;8843;48.838;9.324;2023-05-07T11:48:50;22.90;66.60
17452;DHT22;8843;48.838;9.324;2023-05-07T11:51:21;22.80;66.60
17452;DHT22;8843;48.838;9.324;2023-05-07T11:53:48;22.70;66.80
17452;DHT22;8843;48.838;9.324;2023-05-07T11:56:16;22.60;66.50
17452;DHT22;8843;48.838;9.324;2023-05-07T11:58:45;22.60;68.40
17452;DHT22;8843;48.838;9.324;2023-05-07T12:01:13;22.70;66.60
17452;DHT22;8843;48.838;9.324;2023-05-07T12:03:42;22.70;67.80
17452;DHT22;8843;48.838;9.324;2023-05-07T12:06:11;22.60;65.10
17452;DHT22;8843;48.838;9.324;2023-05-07T12:08:39;22.50;66.60
17452;DHT22;8843;48.838;9.324;2023-05-07T12:11:12;22.60;68.50
17452;DHT22;8843;48.838;9.324;2023-05-07T12:13:41;22.40;68.20
17452;DHT22;8843;48.838;9.324;2023-05-07T12:16:08;22.10;67.60
17452;DHT22;8843;48.838;9.324;2023-05-07T12:18:35;22.00;68.30
17452;DHT22;8843;48.838;9.324;2023-05-07T12:21:05;22.10;68.40
17452;DHT22;8843;48.838;9.324;2023-05-07T12:23:34;22.00;68.20
17452;DHT22;8843;48.838;9.324;2023-05-07T12:26:01;22.20;68.60
17452;DHT22;8843;48.838;9.324;2023-05-07T12:28:28;22.10;68.70
17452;DHT22;8843;48.838;9.324;2023-05-07T12:30:56;22.10;69.10
17452;DHT22;8843;48.838;9.324;2023-05-07T12:33:25;22.10;69.50
17452;DHT22;8843;48.838;9.324;2023-05-07T12:35:55;22.00;69.70
17452;DHT22;8843;48.838;9.324;2023-05-07T12:38:23;21.90;69.90
17452;DHT22;8843;48.838;9.324;2023-05-07T12:40:54;21.80;70.20
17452;DHT22;8843;48.838;9.324;2023-05-07T12:43:23;21.80;70.70
17452;DHT22;8843;48.838;9.324;2023-05-07T12:45:52;21.80;71.70
17452;DHT22;8843;48.838;9.324;2023-05-07T12:48:21;21.80;72.10
17452;DHT22;8843;48.838;9.324;2023-05-07T12:50:49;21.70;72.20
17452;DHT22;8843;48.838;9.324;2023-05-07T12:53:17;21.60;72.00
17452;DHT22;8843;48.838;9.324;2023-05-07T12:55:49;21.60;72.10
17452;DHT22;8843;48.838;9.324;2023-05-07T12:58:16;21.40;71.40
17452;DHT22;8843;48.838;9.324;2023-05-07T13:00:45;21.20;71.40
17452;DHT22;8843;48.838;9.324;2023-05-07T13:03:21;21.10;71.50
17452;DHT22;8843;48.838;9.324;2023-05-07T13:05:48;21.00;71.50
17452;DHT22;8843;48.838;9.324;2023-05-07T13:08:26;20.90;71.30
17452;DHT22;8843;48.838;9.324;2023-05-07T13:10:57;21.00;71.70
17452;DHT22;8843;48.838;9.324;2023-05-07T13:13:24;21.00;72.00
17452;DHT22;8843;48.838;9.324;2023-05-07T13:15:51;21.00;72.50
17452;DHT22;8843;48.838;9.324;2023-05-07T13:18:18;21.00;73.10
17452;DHT22;8843;48.838;9.324;2023-05-07T13:20:45;20.90;73.50
17452;DHT22;8843;48.838;9.324;2023-05-07T13:23:12;20.80;74.10
17452;DHT22;8843;48.838;9.324;2023-05-07T13:25:38;20.40;74.90
17452;DHT22;8843;48.838;9.324;2023-05-07T13:28:07;20.10;75.40
17452;DHT22;8843;48.838;9.324;2023-05-07T13:30:34;19.90;77.00
17452;DHT22;8843;48.838;9.324;2023-05-07T13:33:01;19.70;77.10
17452;DHT22;8843;48.838;9.324;2023-05-07T13:35:28;19.60;78.80
17452;DHT22;8843;48.838;9.324;2023-05-07T13:37:55;19.60;78.70
17452;DHT22;8843;48.838;9.324;2023-05-07T13:40:22;19.60;80.10
17452;DHT22;8843;48.838;9.324;2023-05-07T13:42:49;19.60;80.00
17452;DHT22;8843;48.838;9.324;2023-05-07T13:45:18;19.50;80.20
17452;DHT22;8843;48.838;9.324;2023-05-07T13:47:45;19.50;80.00
17452;DHT22;8843;48.838;9.324;2023-05-07T13:50:14;19.30;79.80
17452;DHT22;8843;48.838;9.324;2023-05-07T13:52:42;19.40;81.50
17452;DHT22;8843;48.838;9.324;2023-05-07T13:55:11;19.40;80.80
17452;DHT22;8843;48.838;9.324;2023-05-07T13:57:38;19.40;80.70
17452;DHT22;8843;48.838;9.324;2023-05-07T14:00:06;19.40;81.30
17452;DHT22;8843;48.838;9.324;2023-05-07T14:02:35;19.40;82.10
17452;DHT22;8843;48.838;9.324;2023-05-07T14:05:02;19.40;83.00
17452;DHT22;8843;48.838;9.324;2023-05-07T14:07:29;19.40;83.40
17452;DHT22;8843;48.838;9.324;2023-05-07T14:09:56;19.30;82.50
17452;DHT22;8843;48.838;9.324;2023-05-07T14:12:23;18.90;82.00
17452;DHT22;8843;48.838;9.324;2023-05-07T14:14:50;18.70;82.80
17452;DHT22;8843;48.838;9.324;2023-05-07T14:17:17;18.90;82.70
17452;DHT22;8843;48.838;9.324;2023-05-07T14:19:46;19.00;83.30
17452;DHT22;8843;48.838;9.324;2023-05-07T14:22:13;19.10;83.30
17452;DHT22;8843;48.838;9.324;2023-05-07T14:24:40;19.00;84.70
17452;DHT22;8843;48.838;9.324;2023-05-07T14:27:07;18.90;86.30
17452;DHT22;8843;48.838;9.324;2023-05-07T14:29:34;18.80;85.20
17452;DHT22;8843;48.838;9.324;2023-05-07T14:32:01;18.90;85.00
17452;DHT22;8843;48.838;9.324;2023-05-07T14:34:29;19.00;84.70
17452;DHT22;8843;48.838;9.324;2023-05-07T14:36:57;18.90;86.80
17452;DHT22;8843;48.838;9.324;2023-05-07T14:39:24;19.00;85.30
17452;DHT22;8843;48.838;9.324;2023-05-07T14:41:51;19.00;85.00
17452;DHT22;8843;48.838;9.324;2023-05-07T14:44:20;19.00;84.90
17452;DHT22;8843;48.838;9.324;2023-05-07T14:46:47;19.00;85.00
17452;DHT22;8843;48.838;9.324;2023-05-07T14:49:14;19.00;85.70
17452;DHT22;8843;48.838;9.324;2023-05-07T14:51:43;18.90;85.60
17452;DHT22;8843;48.838;9.324;2023-05-07T14:54:11;18.90;86.00
17452;DHT22;8843;48.838;9.324;2023-05-07T14:56:39;18.90;87.00
17452;DHT22;8843;48.838;9.324;2023-05-07T14:59:07;18.90;86.90
17452;DHT22;8843;48.838;9.324;2023-05-07T15:01:34;18.90;87.10
17452;DHT22;8843;48.838;9.324;2023-05-07T15:04:03;18.90;87.10
17452;DHT22;8843;48.838;9.324;2023-05-07T15:06:30;18.90;86.70
17452;DHT22;8843;48.838;9.324;2023-05-07T15:08:57;18.80;88.10
17452;DHT22;8843;48.838;9.324;2023-05-07T15:11:26;18.70;89.10
17452;DHT22;8843;48.838;9.324;2023-05-07T15:13:53;18.70;88.40
17452;DHT22;8843;48.838;9.324;2023-05-07T15:16:20;18.70;88.40
17452;DHT22;8843;48.838;9.324;2023-05-07T15:18:47;18.70;88.20
17452;DHT22;8843;48.838;9.324;2023-05-07T15:21:14;18.70;88.50
